sensor_id;sensor_type;location;lat;lon;timestamp;P1;durP1;ratioP1;P2;durP2;ratioP2
11847;SDS011;5983;49.966;8.052;2023-07-24T06:23:54;2.77;;;1.50;;
11847;SDS011;5983;49.966;8.052;2023-07-24T06:26:21;2.67;;;1.67;;
11847;SDS011;5983;49.966;8.052;2023-07-24T06:28:48;3.20;;;1.57;;
11847;SDS011;5983;49.966;8.052;2023-07-24T06:31:15;1.50;;;1.30;;
11847;SDS011;5983;49.966;8.052;2023-07-24T06:33:41;2.50;;;1.50;;
11847;SDS011;5983;49.966;8.052;2023-07-24T06:36:09;3.60;;;1.57;;
11847;SDS011;5983;49.966;8.052;2023-07-24T06:38:37;1.90;;;1.50;;
11847;SDS011;5983;49.966;8.052;2023-07-24T06:41:04;2.13;;;1.33;;
11847;SDS011;5983;49.966;8.052;2023-07-24T06:43:31;2.33;;;1.40;;
11847;SDS011;5983;49.966;8.052;2023-07-24T06:45:58;1.53;;;1.17;;
11847;SDS011;5983;49.966;8.052;2023-07-24T06:48:25;1.17;;;1.07;;
11847;SDS011;5983;49.966;8.052;2023-07-24T06:50:52;1.47;;;1.20;;
11847;SDS011;5983;49.966;8.052;2023-07-24T06:53:20;2.13;;;1.30;;
11847;SDS011;5983;49.966;8.052;2023-07-24T06:55:47;2.13;;;1.47;;
11847;SDS011;5983;49.966;8.052;2023-07-24T06:58:14;2.63;;;1.40;;
11847;SDS011;5983;49.966;8.052;2023-07-24T07:00:40;1.87;;;1.47;;
11847;SDS011;5983;49.966;8.052;2023-07-24T07:03:07;2.63;;;1.50;;
11847;SDS011;5983;49.966;8.052;2023-07-24T07:05:34;2.10;;;1.47;;
11847;SDS011;5983;49.966;8.052;2023-07-24T07:08:01;2.40;;;1.60;;
11847;SDS011;5983;49.966;8.052;2023-07-24T07:10:31;5.27;;;1.53;;
11847;SDS011;5983;49.966;8.052;2023-07-24T07:12:58;5.63;;;1.70;;
11847;SDS011;5983;49.966;8.052;2023-07-24T07:15:25;2.23;;;1.77;;
11847;SDS011;5983;49.966;8.052;2023-07-24T07:17:52;2.03;;;1.43;;
11847;SDS011;5983;49.966;8.052;2023-07-24T07:20:19;4.13;;;2.27;;
11847;SDS011;5983;49.966;8.052;2023-07-24T07:22:46;1.70;;;1.60;;
11847;SDS011;5983;49.966;8.052;2023-07-24T07:25:12;2.37;;;1.57;;
11847;SDS011;5983;49.966;8.052;2023-07-24T07:27:41;3.17;;;2.10;;
11847;SDS011;5983;49.966;8.052;2023-07-24T07:30:08;2.50;;;1.80;;
11847;SDS011;5983;49.966;8.052;2023-07-24T07:32:36;1.90;;;1.70;;
11847;SDS011;5983;49.966;8.052;2023-07-24T07:35:03;2.80;;;1.53;;
11847;SDS011;5983;49.966;8.052;2023-07-24T07:37:31;3.30;;;2.00;;
11847;SDS011;5983;49.966;8.052;2023-07-24T07:39:58;2.53;;;1.77;;
11847;SDS011;5983;49.966;8.052;2023-07-24T07:42:25;2.63;;;1.73;;
11847;SDS011;5983;49.966;8.052;2023-07-24T07:44:53;3.17;;;2.00;;
11847;SDS011;5983;49.966;8.052;2023-07-24T07:47:20;2.10;;;1.60;;
11847;SDS011;5983;49.966;8.052;2023-07-24T07:49:47;4.07;;;1.83;;
11847;SDS011;5983;49.966;8.052;2023-07-24T07:52:14;1.63;;;1.53;;
11847;SDS011;5983;49.966;8.052;2023-07-24T07:54:45;1.87;;;1.60;;
11847;SDS011;5983;49.966;8.052;2023-07-24T07:57:12;2.33;;;1.60;;
11847;SDS011;5983;49.966;8.052;2023-07-24T07:59:39;4.17;;;2.03;;
11847;SDS011;5983;49.966;8.052;2023-07-24T08:02:08;2.57;;;1.80;;
11847;SDS011;5983;49.966;8.052;2023-07-24T08:04:35;3.33;;;2.23;;
11847;SDS011;5983;49.966;8.052;2023-07-24T08:07:02;4.67;;;2.10;;
11847;SDS011;5983;49.966;8.052;2023-07-24T08:09:29;4.03;;;2.60;;
11847;SDS011;5983;49.966;8.052;2023-07-24T08:11:57;4.37;;;2.10;;
11847;SDS011;5983;49.966;8.052;2023-07-24T08:14:24;2.00;;;1.67;;
11847;SDS011;5983;49.966;8.052;2023-07-24T08:16:51;5.87;;;2.77;;
11847;SDS011;5983;49.966;8.052;2023-07-24T08:19:19;2.67;;;2.13;;
11847;SDS011;5983;49.966;8.052;2023-07-24T08:21:46;2.93;;;2.30;;
11847;SDS011;5983;49.966;8.052;2023-07-24T08:24:13;4.30;;;2.50;;
11847;SDS011;5983;49.966;8.052;2023-07-24T08:26:40;2.33;;;1.77;;
11847;SDS011;5983;49.966;8.052;2023-07-24T08:29:07;5.07;;;2.30;;
11847;SDS011;5983;49.966;8.052;2023-07-24T08:31:34;4.47;;;2.63;;
11847;SDS011;5983;49.966;8.052;2023-07-24T08:34:01;6.27;;;2.67;;
11847;SDS011;5983;49.966;8.052;2023-07-24T08:36:29;5.67;;;2.30;;
11847;SDS011;5983;49.966;8.052;2023-07-24T08:38:56;4.43;;;2.40;;
11847;SDS011;5983;49.966;8.052;2023-07-24T08:41:22;3.07;;;2.20;;
11847;SDS011;5983;49.966;8.052;2023-07-24T08:43:49;3.17;;;2.10;;
11847;SDS011;5983;49.966;8.052;2023-07-24T08:46:18;2.77;;;2.10;;
11847;SDS011;5983;49.966;8.052;2023-07-24T08:48:47;5.80;;;2.07;;
11847;SDS011;5983;49.966;8.052;2023-07-24T08:51:14;2.57;;;1.83;;
11847;SDS011;5983;49.966;8.052;2023-07-24T08:53:45;2.23;;;1.70;;
11847;SDS011;5983;49.966;8.052;2023-07-24T08:56:13;2.83;;;2.00;;
11847;SDS011;5983;49.966;8.052;2023-07-24T08:58:40;4.00;;;2.00;;
11847;SDS011;5983;49.966;8.052;2023-07-24T09:01:08;3.00;;;2.00;;
11847;SDS011;5983;49.966;8.052;2023-07-24T09:03:35;7.73;;;3.20;;
11847;SDS011;5983;49.966;8.052;2023-07-24T09:06:02;3.97;;;2.20;;
11847;SDS011;5983;49.966;8.052;2023-07-24T09:08:32;2.37;;;1.83;;
11847;SDS011;5983;49.966;8.052;2023-07-24T09:11:01;2.83;;;2.13;;
11847;SDS011;5983;49.966;8.052;2023-07-24T09:13:30;2.50;;;2.00;;
11847;SDS011;5983;49.966;8.052;2023-07-24T09:15:58;3.57;;;2.10;;
11847;SDS011;5983;49.966;8.052;2023-07-24T09:18:25;2.80;;;2.20;;
11847;SDS011;5983;49.966;8.052;2023-07-24T09:20:52;2.73;;;2.00;;
11847;SDS011;5983;49.966;8.052;2023-07-24T09:23:25;2.57;;;1.90;;
11847;SDS011;5983;49.966;8.052;2023-07-24T09:25:53;4.73;;;2.30;;
11847;SDS011;5983;49.966;8.052;2023-07-24T09:28:22;7.40;;;2.10;;
11847;SDS011;5983;49.966;8.052;2023-07-24T09:30:52;5.00;;;2.47;;
11847;SDS011;5983;49.966;8.052;2023-07-24T09:33:22;5.23;;;2.00;;
11847;SDS011;5983;49.966;8.052;2023-07-24T09:35:59;4.70;;;2.07;;
11847;SDS011;5983;49.966;8.052;2023-07-24T09:38:26;4.10;;;2.60;;
11847;SDS011;5983;49.966;8.052;2023-07-24T09:40:53;2.93;;;2.17;;
11847;SDS011;5983;49.966;8.052;2023-07-24T09:43:24;4.07;;;2.47;;
11847;SDS011;5983;49.966;8.052;2023-07-24T09:45:54;4.03;;;2.30;;
11847;SDS011;5983;49.966;8.052;2023-07-24T09:48:23;3.03;;;2.23;;
11847;SDS011;5983;49.966;8.052;2023-07-24T09:50:52;4.27;;;2.50;;
11847;SDS011;5983;49.966;8.052;2023-07-24T09:53:27;2.70;;;2.07;;
11847;SDS011;5983;49.966;8.052;2023-07-24T09:56:00;3.17;;;2.43;;
11847;SDS011;5983;49.966;8.052;2023-07-24T09:58:31;5.13;;;2.93;;
11847;SDS011;5983;49.966;8.052;2023-07-24T10:01:02;6.87;;;3.03;;
11847;SDS011;5983;49.966;8.052;2023-07-24T10:03:31;2.87;;;2.50;;
11847;SDS011;5983;49.966;8.052;2023-07-24T10:06:00;4.83;;;3.20;;
11847;SDS011;5983;49.966;8.052;2023-07-24T10:08:27;3.90;;;2.80;;
11847;SDS011;5983;49.966;8.052;2023-07-24T10:10:56;4.70;;;3.20;;
11847;SDS011;5983;49.966;8.052;2023-07-24T10:13:25;5.83;;;2.77;;
11847;SDS011;5983;49.966;8.052;2023-07-24T10:15:54;4.77;;;3.03;;
11847;SDS011;5983;49.966;8.052;2023-07-24T10:18:25;4.70;;;2.93;;
11847;SDS011;5983;49.966;8.052;2023-07-24T10:20:59;7.53;;;3.27;;
11847;SDS011;5983;49.966;8.052;2023-07-24T10:23:27;6.37;;;3.20;;
11847;SDS011;5983;49.966;8.052;2023-07-24T10:25:55;7.07;;;3.17;;
11847;SDS011;5983;49.966;8.052;2023-07-24T10:28:30;4.60;;;3.17;;
11847;SDS011;5983;49.966;8.052;2023-07-24T10:31:00;3.57;;;2.67;;
11847;SDS011;5983;49.966;8.052;2023-07-24T10:33:29;3.67;;;3.20;;
11847;SDS011;5983;49.966;8.052;2023-07-24T10:36:03;4.23;;;3.13;;
11847;SDS011;5983;49.966;8.052;2023-07-24T10:38:35;5.97;;;3.40;;
11847;SDS011;5983;49.966;8.052;2023-07-24T10:41:04;5.83;;;2.90;;
11847;SDS011;5983;49.966;8.052;2023-07-24T10:43:42;4.00;;;3.07;;
11847;SDS011;5983;49.966;8.052;2023-07-24T10:46:13;4.40;;;2.77;;
11847;SDS011;5983;49.966;8.052;2023-07-24T10:48:42;6.53;;;3.10;;
11847;SDS011;5983;49.966;8.052;2023-07-24T10:51:10;4.47;;;3.03;;
11847;SDS011;5983;49.966;8.052;2023-07-24T10:53:41;2.93;;;2.63;;
11847;SDS011;5983;49.966;8.052;2023-07-24T10:56:10;4.03;;;3.10;;
11847;SDS011;5983;49.966;8.052;2023-07-24T10:58:37;5.80;;;2.80;;
11847;SDS011;5983;49.966;8.052;2023-07-24T11:01:04;4.37;;;3.23;;
11847;SDS011;5983;49.966;8.052;2023-07-24T11:03:34;3.37;;;2.97;;
11847;SDS011;5983;49.966;8.052;2023-07-24T11:06:03;3.77;;;2.73;;
11847;SDS011;5983;49.966;8.052;2023-07-24T11:08:30;4.30;;;2.90;;
11847;SDS011;5983;49.966;8.052;2023-07-24T11:10:59;5.50;;;2.90;;
11847;SDS011;5983;49.966;8.052;2023-07-24T11:13:28;4.77;;;2.67;;
11847;SDS011;5983;49.966;8.052;2023-07-24T11:15:55;6.50;;;4.33;;
11847;SDS011;5983;49.966;8.052;2023-07-24T11:18:22;3.20;;;2.63;;
11847;SDS011;5983;49.966;8.052;2023-07-24T11:20:53;7.07;;;3.10;;
11847;SDS011;5983;49.966;8.052;2023-07-24T11:23:22;5.93;;;3.10;;
11847;SDS011;5983;49.966;8.052;2023-07-24T11:25:50;5.63;;;2.90;;
11847;SDS011;5983;49.966;8.052;2023-07-24T11:28:18;4.20;;;2.80;;
11847;SDS011;5983;49.966;8.052;2023-07-24T11:30:45;3.67;;;2.97;;
11847;SDS011;5983;49.966;8.052;2023-07-24T11:33:14;5.90;;;2.93;;
11847;SDS011;5983;49.966;8.052;2023-07-24T11:35:42;4.03;;;2.60;;
11847;SDS011;5983;49.966;8.052;2023-07-24T11:38:10;3.53;;;3.10;;
11847;SDS011;5983;49.966;8.052;2023-07-24T11:40:38;5.17;;;2.93;;
11847;SDS011;5983;49.966;8.052;2023-07-24T11:43:14;5.47;;;2.70;;
11847;SDS011;5983;49.966;8.052;2023-07-24T11:45:43;4.93;;;2.70;;
11847;SDS011;5983;49.966;8.052;2023-07-24T11:48:13;3.00;;;2.47;;
11847;SDS011;5983;49.966;8.052;2023-07-24T11:50:41;3.90;;;2.63;;
11847;SDS011;5983;49.966;8.052;2023-07-24T11:53:19;4.30;;;2.50;;
11847;SDS011;5983;49.966;8.052;2023-07-24T11:55:48;4.63;;;2.50;;
11847;SDS011;5983;49.966;8.052;2023-07-24T11:58:16;4.33;;;2.57;;
11847;SDS011;5983;49.966;8.052;2023-07-24T12:00:44;6.53;;;2.73;;
11847;SDS011;5983;49.966;8.052;2023-07-24T12:03:12;2.97;;;2.43;;
11847;SDS011;5983;49.966;8.052;2023-07-24T12:05:41;4.03;;;2.83;;
11847;SDS011;5983;49.966;8.052;2023-07-24T12:08:10;3.17;;;2.33;;
11847;SDS011;5983;49.966;8.052;2023-07-24T12:10:40;5.40;;;2.80;;
11847;SDS011;5983;49.966;8.052;2023-07-24T12:13:09;4.87;;;3.00;;
11847;SDS011;5983;49.966;8.052;2023-07-24T12:15:36;3.57;;;2.83;;
11847;SDS011;5983;49.966;8.052;2023-07-24T12:18:03;3.87;;;2.50;;
11847;SDS011;5983;49.966;8.052;2023-07-24T12:20:31;2.97;;;2.57;;
11847;SDS011;5983;49.966;8.052;2023-07-24T12:22:59;3.10;;;2.80;;
11847;SDS011;5983;49.966;8.052;2023-07-24T12:25:26;3.53;;;2.73;;
11847;SDS011;5983;49.966;8.052;2023-07-24T12:27:54;3.83;;;2.60;;
11847;SDS011;5983;49.966;8.052;2023-07-24T12:30:21;3.90;;;2.40;;
11847;SDS011;5983;49.966;8.052;2023-07-24T12:32:48;3.37;;;2.67;;
11847;SDS011;5983;49.966;8.052;2023-07-24T12:35:15;2.60;;;2.40;;
11847;SDS011;5983;49.966;8.052;2023-07-24T12:37:43;3.50;;;2.87;;
